Airfield :
LOGIN :

Register | Disclaimer

   EN    FR    IT 

 










Legend :    VFR   Marginal VFR   IFR   Intensive IFR   Very Intensive IFR
Visi :
Ceiling :
>= 8 km
>= 3000ft
5 to 8 km
1000 to 3000 ft
1500m to 5 km
500 to 1000 ft
800 to 1500m
200 to 500 ft
< 800m
< 200 ft
Symbols :   Thunderstorms  Fog  Heavy snow  Heavy precipitations  Wind > 20 kt
SIGMETs :     Misc.  Thunderstorms  Icing  Turbulence  Mountain Waves  Volcanic Ashes







- Airport Elevation : 55 ft
- IATA code : DSA
- Download approach charts


EGCN - Robin Hood Doncaster Sheffield

CURRENT METAR :
  • 101650Z 19002KT CAVOK 03/01 Q1028

EXPIRED METARs :
  • 101620Z 19002KT CAVOK 04/03 Q1028
  • 101550Z VRB02KT 9999 FEW024 05/03 Q1028
  • 101520Z 01004KT 9999 FEW022 SCT036 06/03 Q1028
  • 101450Z 36006KT 9999 SCT027 06/03 Q1027
  • 101420Z 01006KT 9999 FEW028 07/04 Q1027

TAF TAF EGCN
Valid from the 10 at 12:00 until the 11 at 12:00 UTC


101105Z 1012/1112 32006KT 9999 FEW030
BECMG 1017/1020 8000
TEMPO 1018/1112 4000 BR
PROB30
TEMPO 1018/1102 BKN014
PROB30
TEMPO 1102/1110 0300 FZFG VV///
BECMG 1106/1109 15010KT
No reported NOTAMs for that airfield.



MET'MAP, your aeronautical weather chart ! - Copyright ORBIFLY December 2007 - Disclaimer

ORBIFLY MET'MAP TEAM :

Programming & Development : Alexandra Zaïnal
Concept & Development : Baudouin d'Aumeries
Co-Development & Prog : Marc-Olivier Méhu
Technical & hardware support : Manuel Goepfert

Contact : metmap@orbifly.com




SOURCES & CREDITS :

   NOAA